sensor_id;sensor_type;location;lat;lon;timestamp;P1;durP1;ratioP1;P2;durP2;ratioP2
25758;SDS011;13604;52.496;13.456;2023-03-01T00:01:13;39.78;;;17.98;;
25758;SDS011;13604;52.496;13.456;2023-03-01T00:03:41;45.03;;;17.73;;
25758;SDS011;13604;52.496;13.456;2023-03-01T00:06:07;37.67;;;17.40;;
25758;SDS011;13604;52.496;13.456;2023-03-01T00:08:33;32.40;;;16.17;;
25758;SDS011;13604;52.496;13.456;2023-03-01T00:11:00;38.78;;;16.67;;
25758;SDS011;13604;52.496;13.456;2023-03-01T00:13:34;36.63;;;16.90;;
25758;SDS011;13604;52.496;13.456;2023-03-01T00:16:07;33.90;;;16.25;;
25758;SDS011;13604;52.496;13.456;2023-03-01T00:18:34;35.95;;;16.63;;
25758;SDS011;13604;52.496;13.456;2023-03-01T00:21:00;42.25;;;18.05;;
25758;SDS011;13604;52.496;13.456;2023-03-01T00:23:25;50.05;;;17.92;;
25758;SDS011;13604;52.496;13.456;2023-03-01T00:25:51;35.40;;;17.45;;
25758;SDS011;13604;52.496;13.456;2023-03-01T00:28:17;41.22;;;18.13;;
25758;SDS011;13604;52.496;13.456;2023-03-01T00:30:42;58.25;;;23.65;;
25758;SDS011;13604;52.496;13.456;2023-03-01T00:33:08;50.80;;;22.33;;
25758;SDS011;13604;52.496;13.456;2023-03-01T00:35:33;43.22;;;19.55;;
25758;SDS011;13604;52.496;13.456;2023-03-01T00:37:59;39.85;;;19.02;;
25758;SDS011;13604;52.496;13.456;2023-03-01T00:40:25;38.33;;;18.10;;
25758;SDS011;13604;52.496;13.456;2023-03-01T00:42:51;36.45;;;17.35;;
25758;SDS011;13604;52.496;13.456;2023-03-01T00:45:16;37.72;;;16.83;;
25758;SDS011;13604;52.496;13.456;2023-03-01T00:47:42;43.63;;;17.90;;
25758;SDS011;13604;52.496;13.456;2023-03-01T00:50:07;44.97;;;18.33;;
25758;SDS011;13604;52.496;13.456;2023-03-01T00:52:33;41.42;;;17.52;;
25758;SDS011;13604;52.496;13.456;2023-03-01T00:54:58;38.47;;;17.48;;
25758;SDS011;13604;52.496;13.456;2023-03-01T00:57:23;41.72;;;18.33;;
25758;SDS011;13604;52.496;13.456;2023-03-01T00:59:49;43.97;;;17.92;;
25758;SDS011;13604;52.496;13.456;2023-03-01T01:02:14;40.08;;;17.88;;
25758;SDS011;13604;52.496;13.456;2023-03-01T01:04:39;44.33;;;17.73;;
25758;SDS011;13604;52.496;13.456;2023-03-01T01:07:05;36.22;;;17.23;;
25758;SDS011;13604;52.496;13.456;2023-03-01T01:09:30;41.25;;;17.33;;
25758;SDS011;13604;52.496;13.456;2023-03-01T01:11:55;38.40;;;17.50;;
25758;SDS011;13604;52.496;13.456;2023-03-01T01:14:21;35.38;;;16.42;;
25758;SDS011;13604;52.496;13.456;2023-03-01T01:16:46;42.78;;;18.27;;
25758;SDS011;13604;52.496;13.456;2023-03-01T01:19:12;41.78;;;17.55;;
25758;SDS011;13604;52.496;13.456;2023-03-01T01:21:38;37.50;;;17.33;;
25758;SDS011;13604;52.496;13.456;2023-03-01T01:24:03;42.22;;;17.80;;
25758;SDS011;13604;52.496;13.456;2023-03-01T01:26:31;44.38;;;17.60;;
25758;SDS011;13604;52.496;13.456;2023-03-01T01:28:59;39.90;;;18.48;;
25758;SDS011;13604;52.496;13.456;2023-03-01T01:31:26;42.78;;;17.85;;
25758;SDS011;13604;52.496;13.456;2023-03-01T01:33:53;35.20;;;17.20;;
25758;SDS011;13604;52.496;13.456;2023-03-01T01:36:19;41.28;;;17.58;;
25758;SDS011;13604;52.496;13.456;2023-03-01T01:38:44;40.22;;;17.88;;
25758;SDS011;13604;52.496;13.456;2023-03-01T01:41:10;37.72;;;17.23;;
25758;SDS011;13604;52.496;13.456;2023-03-01T01:43:40;37.35;;;17.15;;
25758;SDS011;13604;52.496;13.456;2023-03-01T01:46:21;34.60;;;17.55;;
25758;SDS011;13604;52.496;13.456;2023-03-01T01:49:02;39.72;;;17.50;;
25758;SDS011;13604;52.496;13.456;2023-03-01T01:51:37;37.92;;;16.67;;
25758;SDS011;13604;52.496;13.456;2023-03-01T01:54:08;31.70;;;16.02;;
25758;SDS011;13604;52.496;13.456;2023-03-01T01:56:37;39.85;;;16.88;;
25758;SDS011;13604;52.496;13.456;2023-03-01T01:59:05;38.00;;;16.67;;
25758;SDS011;13604;52.496;13.456;2023-03-01T02:01:31;45.65;;;19.38;;
25758;SDS011;13604;52.496;13.456;2023-03-01T02:03:56;47.55;;;21.15;;
25758;SDS011;13604;52.496;13.456;2023-03-01T02:06:58;48.08;;;19.95;;
25758;SDS011;13604;52.496;13.456;2023-03-01T02:09:22;42.95;;;20.23;;
25758;SDS011;13604;52.496;13.456;2023-03-01T02:11:48;46.30;;;19.63;;
25758;SDS011;13604;52.496;13.456;2023-03-01T02:14:15;42.55;;;19.73;;
25758;SDS011;13604;52.496;13.456;2023-03-01T02:16:41;44.28;;;19.08;;
25758;SDS011;13604;52.496;13.456;2023-03-01T02:19:07;38.45;;;19.00;;
25758;SDS011;13604;52.496;13.456;2023-03-01T02:22:00;36.83;;;17.42;;
25758;SDS011;13604;52.496;13.456;2023-03-01T02:24:34;35.25;;;17.70;;
25758;SDS011;13604;52.496;13.456;2023-03-01T02:27:08;40.03;;;16.67;;
25758;SDS011;13604;52.496;13.456;2023-03-01T02:29:34;45.30;;;17.92;;
25758;SDS011;13604;52.496;13.456;2023-03-01T02:32:00;46.45;;;17.80;;
25758;SDS011;13604;52.496;13.456;2023-03-01T02:34:28;42.13;;;19.08;;
25758;SDS011;13604;52.496;13.456;2023-03-01T02:36:59;40.70;;;18.15;;
25758;SDS011;13604;52.496;13.456;2023-03-01T02:39:43;39.97;;;18.67;;
25758;SDS011;13604;52.496;13.456;2023-03-01T02:42:14;43.53;;;17.10;;
25758;SDS011;13604;52.496;13.456;2023-03-01T02:44:44;37.80;;;18.13;;
25758;SDS011;13604;52.496;13.456;2023-03-01T02:47:09;40.05;;;18.80;;
25758;SDS011;13604;52.496;13.456;2023-03-01T02:49:36;41.58;;;19.75;;
25758;SDS011;13604;52.496;13.456;2023-03-01T02:52:07;42.15;;;19.45;;
25758;SDS011;13604;52.496;13.456;2023-03-01T02:55:00;41.30;;;19.33;;
25758;SDS011;13604;52.496;13.456;2023-03-01T02:57:28;40.75;;;20.05;;
25758;SDS011;13604;52.496;13.456;2023-03-01T02:59:56;46.58;;;21.10;;
25758;SDS011;13604;52.496;13.456;2023-03-01T03:02:25;48.80;;;22.17;;
25758;SDS011;13604;52.496;13.456;2023-03-01T03:05:07;48.75;;;21.92;;
25758;SDS011;13604;52.496;13.456;2023-03-01T03:07:39;40.65;;;20.63;;
25758;SDS011;13604;52.496;13.456;2023-03-01T03:10:08;44.10;;;21.30;;
25758;SDS011;13604;52.496;13.456;2023-03-01T03:12:39;44.42;;;20.42;;
25758;SDS011;13604;52.496;13.456;2023-03-01T03:15:05;47.78;;;21.45;;
25758;SDS011;13604;52.496;13.456;2023-03-01T03:17:34;41.75;;;19.48;;
25758;SDS011;13604;52.496;13.456;2023-03-01T03:20:02;45.03;;;20.10;;
25758;SDS011;13604;52.496;13.456;2023-03-01T03:22:29;41.47;;;18.95;;
25758;SDS011;13604;52.496;13.456;2023-03-01T03:24:54;38.38;;;18.35;;
25758;SDS011;13604;52.496;13.456;2023-03-01T03:27:20;48.20;;;20.75;;
25758;SDS011;13604;52.496;13.456;2023-03-01T03:29:45;42.83;;;20.20;;
25758;SDS011;13604;52.496;13.456;2023-03-01T03:32:10;49.00;;;21.08;;
25758;SDS011;13604;52.496;13.456;2023-03-01T03:34:36;49.08;;;21.45;;
25758;SDS011;13604;52.496;13.456;2023-03-01T03:37:01;54.08;;;20.70;;
25758;SDS011;13604;52.496;13.456;2023-03-01T03:39:26;49.90;;;21.00;;
25758;SDS011;13604;52.496;13.456;2023-03-01T03:41:52;50.72;;;22.60;;
25758;SDS011;13604;52.496;13.456;2023-03-01T03:44:18;50.55;;;20.90;;
25758;SDS011;13604;52.496;13.456;2023-03-01T03:46:44;45.75;;;20.45;;
25758;SDS011;13604;52.496;13.456;2023-03-01T03:49:09;45.60;;;21.42;;
25758;SDS011;13604;52.496;13.456;2023-03-01T03:51:34;42.58;;;20.13;;
25758;SDS011;13604;52.496;13.456;2023-03-01T03:54:00;47.72;;;21.27;;
25758;SDS011;13604;52.496;13.456;2023-03-01T03:56:25;51.80;;;21.65;;
25758;SDS011;13604;52.496;13.456;2023-03-01T03:58:50;44.10;;;20.50;;
25758;SDS011;13604;52.496;13.456;2023-03-01T04:01:16;48.70;;;20.67;;
25758;SDS011;13604;52.496;13.456;2023-03-01T04:03:41;49.85;;;21.25;;
25758;SDS011;13604;52.496;13.456;2023-03-01T04:06:11;49.60;;;22.77;;
25758;SDS011;13604;52.496;13.456;2023-03-01T04:08:36;40.25;;;19.67;;
25758;SDS011;13604;52.496;13.456;2023-03-01T04:11:03;44.40;;;20.88;;
25758;SDS011;13604;52.496;13.456;2023-03-01T04:13:49;44.38;;;20.05;;
25758;SDS011;13604;52.496;13.456;2023-03-01T04:16:16;45.33;;;20.80;;
25758;SDS011;13604;52.496;13.456;2023-03-01T04:18:42;46.72;;;21.45;;
25758;SDS011;13604;52.496;13.456;2023-03-01T04:21:08;50.30;;;23.40;;
25758;SDS011;13604;52.496;13.456;2023-03-01T04:23:33;52.50;;;23.55;;
25758;SDS011;13604;52.496;13.456;2023-03-01T04:25:59;58.30;;;24.13;;
25758;SDS011;13604;52.496;13.456;2023-03-01T04:28:26;53.83;;;23.50;;
25758;SDS011;13604;52.496;13.456;2023-03-01T04:30:56;51.17;;;23.92;;
25758;SDS011;13604;52.496;13.456;2023-03-01T04:33:24;51.33;;;21.98;;
25758;SDS011;13604;52.496;13.456;2023-03-01T04:35:49;44.40;;;21.50;;
25758;SDS011;13604;52.496;13.456;2023-03-01T04:38:16;54.33;;;22.98;;
25758;SDS011;13604;52.496;13.456;2023-03-01T04:40:42;54.15;;;22.63;;
25758;SDS011;13604;52.496;13.456;2023-03-01T04:43:08;51.10;;;22.73;;
25758;SDS011;13604;52.496;13.456;2023-03-01T04:45:34;49.67;;;21.65;;
25758;SDS011;13604;52.496;13.456;2023-03-01T04:47:59;59.08;;;23.70;;
25758;SDS011;13604;52.496;13.456;2023-03-01T04:50:25;48.83;;;22.25;;
25758;SDS011;13604;52.496;13.456;2023-03-01T04:52:50;51.15;;;21.83;;
25758;SDS011;13604;52.496;13.456;2023-03-01T04:55:16;44.38;;;21.52;;
25758;SDS011;13604;52.496;13.456;2023-03-01T04:57:41;47.72;;;22.40;;
25758;SDS011;13604;52.496;13.456;2023-03-01T05:00:08;50.13;;;24.13;;
25758;SDS011;13604;52.496;13.456;2023-03-01T05:02:56;56.92;;;24.58;;
25758;SDS011;13604;52.496;13.456;2023-03-01T05:05:27;50.35;;;23.83;;
25758;SDS011;13604;52.496;13.456;2023-03-01T05:08:01;50.58;;;23.60;;
25758;SDS011;13604;52.496;13.456;2023-03-01T05:10:30;55.10;;;24.80;;
25758;SDS011;13604;52.496;13.456;2023-03-01T05:12:57;62.20;;;24.75;;
25758;SDS011;13604;52.496;13.456;2023-03-01T05:15:23;60.85;;;25.42;;
25758;SDS011;13604;52.496;13.456;2023-03-01T05:17:54;56.63;;;25.27;;
25758;SDS011;13604;52.496;13.456;2023-03-01T05:20:20;56.08;;;24.70;;
25758;SDS011;13604;52.496;13.456;2023-03-01T05:22:50;53.00;;;23.83;;
25758;SDS011;13604;52.496;13.456;2023-03-01T05:25:16;58.10;;;23.50;;
25758;SDS011;13604;52.496;13.456;2023-03-01T05:27:41;55.88;;;24.90;;
25758;SDS011;13604;52.496;13.456;2023-03-01T05:30:07;51.38;;;22.13;;
25758;SDS011;13604;52.496;13.456;2023-03-01T05:32:45;50.33;;;23.80;;
25758;SDS011;13604;52.496;13.456;2023-03-01T05:35:14;52.40;;;24.00;;
25758;SDS011;13604;52.496;13.456;2023-03-01T05:37:41;52.20;;;24.20;;
25758;SDS011;13604;52.496;13.456;2023-03-01T05:40:12;55.00;;;23.77;;
25758;SDS011;13604;52.496;13.456;2023-03-01T05:42:41;65.13;;;25.52;;
25758;SDS011;13604;52.496;13.456;2023-03-01T05:45:08;57.33;;;26.40;;
25758;SDS011;13604;52.496;13.456;2023-03-01T05:47:37;55.53;;;25.60;;
25758;SDS011;13604;52.496;13.456;2023-03-01T05:50:08;49.47;;;24.23;;
25758;SDS011;13604;52.496;13.456;2023-03-01T05:52:37;55.15;;;24.15;;
25758;SDS011;13604;52.496;13.456;2023-03-01T05:55:03;61.17;;;25.20;;
25758;SDS011;13604;52.496;13.456;2023-03-01T05:57:28;58.15;;;26.80;;
25758;SDS011;13604;52.496;13.456;2023-03-01T05:59:54;51.25;;;24.65;;
25758;SDS011;13604;52.496;13.456;2023-03-01T06:02:19;56.40;;;26.92;;
25758;SDS011;13604;52.496;13.456;2023-03-01T06:04:44;63.00;;;29.13;;
25758;SDS011;13604;52.496;13.456;2023-03-01T06:07:10;63.72;;;27.85;;
25758;SDS011;13604;52.496;13.456;2023-03-01T06:09:35;58.60;;;27.48;;
25758;SDS011;13604;52.496;13.456;2023-03-01T06:12:00;57.53;;;25.55;;
25758;SDS011;13604;52.496;13.456;2023-03-01T06:14:26;58.50;;;24.48;;
25758;SDS011;13604;52.496;13.456;2023-03-01T06:16:51;56.58;;;26.58;;
25758;SDS011;13604;52.496;13.456;2023-03-01T06:19:16;52.45;;;24.13;;
25758;SDS011;13604;52.496;13.456;2023-03-01T06:21:41;51.08;;;25.48;;
25758;SDS011;13604;52.496;13.456;2023-03-01T06:24:07;55.50;;;24.77;;
25758;SDS011;13604;52.496;13.456;2023-03-01T06:26:33;50.42;;;23.98;;
25758;SDS011;13604;52.496;13.456;2023-03-01T06:28:58;57.90;;;27.27;;
25758;SDS011;13604;52.496;13.456;2023-03-01T06:31:23;67.82;;;26.08;;
25758;SDS011;13604;52.496;13.456;2023-03-01T06:33:49;64.50;;;25.75;;
25758;SDS011;13604;52.496;13.456;2023-03-01T06:36:14;58.22;;;25.27;;
25758;SDS011;13604;52.496;13.456;2023-03-01T06:38:40;57.65;;;25.85;;
25758;SDS011;13604;52.496;13.456;2023-03-01T06:41:06;56.83;;;26.73;;
25758;SDS011;13604;52.496;13.456;2023-03-01T06:43:31;59.03;;;25.33;;
25758;SDS011;13604;52.496;13.456;2023-03-01T06:45:57;50.33;;;24.10;;
25758;SDS011;13604;52.496;13.456;2023-03-01T06:48:22;52.92;;;25.48;;
25758;SDS011;13604;52.496;13.456;2023-03-01T06:50:47;47.13;;;25.13;;
25758;SDS011;13604;52.496;13.456;2023-03-01T06:53:13;55.50;;;26.23;;
25758;SDS011;13604;52.496;13.456;2023-03-01T06:55:38;56.00;;;26.73;;
25758;SDS011;13604;52.496;13.456;2023-03-01T06:58:03;56.38;;;25.45;;
25758;SDS011;13604;52.496;13.456;2023-03-01T07:00:29;44.90;;;23.90;;
25758;SDS011;13604;52.496;13.456;2023-03-01T07:02:56;46.50;;;23.10;;
25758;SDS011;13604;52.496;13.456;2023-03-01T07:05:23;42.42;;;21.75;;
25758;SDS011;13604;52.496;13.456;2023-03-01T07:07:49;43.85;;;22.33;;
25758;SDS011;13604;52.496;13.456;2023-03-01T07:10:14;43.10;;;20.17;;
25758;SDS011;13604;52.496;13.456;2023-03-01T07:12:39;36.78;;;18.45;;
25758;SDS011;13604;52.496;13.456;2023-03-01T07:15:06;36.42;;;18.63;;
25758;SDS011;13604;52.496;13.456;2023-03-01T07:17:34;34.78;;;17.50;;
25758;SDS011;13604;52.496;13.456;2023-03-01T07:19:59;35.67;;;18.17;;
25758;SDS011;13604;52.496;13.456;2023-03-01T07:22:25;38.40;;;18.15;;
25758;SDS011;13604;52.496;13.456;2023-03-01T07:24:50;31.80;;;18.48;;
25758;SDS011;13604;52.496;13.456;2023-03-01T07:27:15;39.30;;;18.98;;
25758;SDS011;13604;52.496;13.456;2023-03-01T07:29:40;34.22;;;17.73;;
25758;SDS011;13604;52.496;13.456;2023-03-01T07:32:06;34.55;;;19.58;;
25758;SDS011;13604;52.496;13.456;2023-03-01T07:34:31;39.55;;;19.10;;
25758;SDS011;13604;52.496;13.456;2023-03-01T07:36:57;29.88;;;18.20;;
25758;SDS011;13604;52.496;13.456;2023-03-01T07:39:22;39.22;;;20.17;;
25758;SDS011;13604;52.496;13.456;2023-03-01T07:41:50;39.97;;;20.27;;
25758;SDS011;13604;52.496;13.456;2023-03-01T07:44:15;35.55;;;18.63;;
25758;SDS011;13604;52.496;13.456;2023-03-01T07:46:42;40.53;;;20.30;;
25758;SDS011;13604;52.496;13.456;2023-03-01T07:49:08;40.13;;;21.05;;
25758;SDS011;13604;52.496;13.456;2023-03-01T07:51:35;44.65;;;22.08;;
25758;SDS011;13604;52.496;13.456;2023-03-01T07:54:00;40.63;;;20.20;;
25758;SDS011;13604;52.496;13.456;2023-03-01T07:56:25;44.10;;;21.88;;
25758;SDS011;13604;52.496;13.456;2023-03-01T07:58:51;39.17;;;20.73;;
25758;SDS011;13604;52.496;13.456;2023-03-01T08:01:17;39.72;;;21.63;;
25758;SDS011;13604;52.496;13.456;2023-03-01T08:03:45;40.17;;;20.67;;
25758;SDS011;13604;52.496;13.456;2023-03-01T08:06:10;42.38;;;20.63;;
25758;SDS011;13604;52.496;13.456;2023-03-01T08:08:37;41.25;;;20.48;;
25758;SDS011;13604;52.496;13.456;2023-03-01T08:11:03;35.60;;;19.92;;
25758;SDS011;13604;52.496;13.456;2023-03-01T08:13:29;40.13;;;19.95;;
25758;SDS011;13604;52.496;13.456;2023-03-01T08:16:00;40.10;;;19.63;;
25758;SDS011;13604;52.496;13.456;2023-03-01T08:18:26;37.78;;;19.80;;
25758;SDS011;13604;52.496;13.456;2023-03-01T08:20:52;50.10;;;20.27;;
25758;SDS011;13604;52.496;13.456;2023-03-01T08:23:17;38.80;;;18.88;;
25758;SDS011;13604;52.496;13.456;2023-03-01T08:25:42;34.90;;;17.20;;
25758;SDS011;13604;52.496;13.456;2023-03-01T08:28:08;31.88;;;15.70;;
25758;SDS011;13604;52.496;13.456;2023-03-01T08:30:33;33.17;;;16.17;;
25758;SDS011;13604;52.496;13.456;2023-03-01T08:32:59;34.45;;;15.27;;
25758;SDS011;13604;52.496;13.456;2023-03-01T08:35:24;31.83;;;15.07;;
25758;SDS011;13604;52.496;13.456;2023-03-01T08:37:49;28.00;;;14.82;;
25758;SDS011;13604;52.496;13.456;2023-03-01T08:40:15;30.52;;;14.40;;
25758;SDS011;13604;52.496;13.456;2023-03-01T08:42:41;22.85;;;13.27;;
25758;SDS011;13604;52.496;13.456;2023-03-01T08:45:08;21.35;;;12.40;;
25758;SDS011;13604;52.496;13.456;2023-03-01T08:47:34;18.55;;;9.82;;
25758;SDS011;13604;52.496;13.456;2023-03-01T08:50:00;19.52;;;9.68;;
25758;SDS011;13604;52.496;13.456;2023-03-01T08:52:25;16.25;;;10.40;;
25758;SDS011;13604;52.496;13.456;2023-03-01T08:54:51;17.73;;;9.20;;
25758;SDS011;13604;52.496;13.456;2023-03-01T08:57:17;15.27;;;8.40;;
25758;SDS011;13604;52.496;13.456;2023-03-01T08:59:42;15.98;;;8.50;;
25758;SDS011;13604;52.496;13.456;2023-03-01T09:02:15;13.32;;;8.73;;
25758;SDS011;13604;52.496;13.456;2023-03-01T09:07:07;18.42;;;8.32;;
25758;SDS011;13604;52.496;13.456;2023-03-01T09:09:34;14.73;;;8.77;;
25758;SDS011;13604;52.496;13.456;2023-03-01T09:11:59;15.85;;;8.50;;
25758;SDS011;13604;52.496;13.456;2023-03-01T09:14:25;16.65;;;9.23;;
25758;SDS011;13604;52.496;13.456;2023-03-01T09:16:50;17.13;;;9.45;;
25758;SDS011;13604;52.496;13.456;2023-03-01T09:19:16;14.93;;;8.85;;
25758;SDS011;13604;52.496;13.456;2023-03-01T09:21:41;11.95;;;7.78;;
25758;SDS011;13604;52.496;13.456;2023-03-01T09:24:17;13.45;;;8.27;;
25758;SDS011;13604;52.496;13.456;2023-03-01T09:26:44;14.73;;;8.20;;
25758;SDS011;13604;52.496;13.456;2023-03-01T09:29:11;17.35;;;9.07;;
25758;SDS011;13604;52.496;13.456;2023-03-01T09:31:37;12.60;;;8.05;;
25758;SDS011;13604;52.496;13.456;2023-03-01T09:34:02;14.68;;;8.77;;
25758;SDS011;13604;52.496;13.456;2023-03-01T09:36:28;11.38;;;7.68;;
25758;SDS011;13604;52.496;13.456;2023-03-01T09:38:53;14.73;;;8.15;;
25758;SDS011;13604;52.496;13.456;2023-03-01T09:41:26;13.50;;;8.35;;
25758;SDS011;13604;52.496;13.456;2023-03-01T09:44:16;17.27;;;7.80;;
25758;SDS011;13604;52.496;13.456;2023-03-01T09:46:55;15.20;;;8.25;;
25758;SDS011;13604;52.496;13.456;2023-03-01T09:49:23;14.98;;;9.13;;
25758;SDS011;13604;52.496;13.456;2023-03-01T09:51:55;11.00;;;7.55;;
25758;SDS011;13604;52.496;13.456;2023-03-01T09:54:23;12.35;;;7.10;;
25758;SDS011;13604;52.496;13.456;2023-03-01T10:00:07;12.27;;;7.40;;
25758;SDS011;13604;52.496;13.456;2023-03-01T10:02:43;11.52;;;6.50;;
25758;SDS011;13604;52.496;13.456;2023-03-01T10:10:54;8.10;;;5.07;;
25758;SDS011;13604;52.496;13.456;2023-03-01T10:13:22;8.23;;;5.50;;
25758;SDS011;13604;52.496;13.456;2023-03-01T10:15:53;13.15;;;5.95;;
25758;SDS011;13604;52.496;13.456;2023-03-01T10:18:27;6.63;;;4.47;;
25758;SDS011;13604;52.496;13.456;2023-03-01T10:21:00;7.95;;;4.90;;
25758;SDS011;13604;52.496;13.456;2023-03-01T10:23:36;8.45;;;4.80;;
25758;SDS011;13604;52.496;13.456;2023-03-01T10:26:08;11.40;;;5.20;;
25758;SDS011;13604;52.496;13.456;2023-03-01T10:28:43;9.10;;;4.60;;
25758;SDS011;13604;52.496;13.456;2023-03-01T10:31:20;8.68;;;5.03;;
25758;SDS011;13604;52.496;13.456;2023-03-01T10:33:52;9.63;;;5.03;;
25758;SDS011;13604;52.496;13.456;2023-03-01T10:36:20;10.27;;;4.90;;
25758;SDS011;13604;52.496;13.456;2023-03-01T10:38:52;9.80;;;5.30;;
25758;SDS011;13604;52.496;13.456;2023-03-01T10:41:22;6.88;;;4.70;;
25758;SDS011;13604;52.496;13.456;2023-03-01T10:43:53;9.07;;;5.25;;
25758;SDS011;13604;52.496;13.456;2023-03-01T10:46:24;7.45;;;5.00;;
25758;SDS011;13604;52.496;13.456;2023-03-01T10:49:05;10.13;;;4.70;;
25758;SDS011;13604;52.496;13.456;2023-03-01T10:51:31;6.45;;;4.38;;
25758;SDS011;13604;52.496;13.456;2023-03-01T10:53:57;8.77;;;4.97;;
25758;SDS011;13604;52.496;13.456;2023-03-01T10:56:22;9.93;;;4.80;;
25758;SDS011;13604;52.496;13.456;2023-03-01T10:58:57;7.57;;;4.68;;
25758;SDS011;13604;52.496;13.456;2023-03-01T11:01:26;11.07;;;4.65;;
25758;SDS011;13604;52.496;13.456;2023-03-01T11:06:31;5.18;;;3.90;;
25758;SDS011;13604;52.496;13.456;2023-03-01T11:08:57;7.40;;;4.30;;
25758;SDS011;13604;52.496;13.456;2023-03-01T11:11:42;6.65;;;4.13;;
25758;SDS011;13604;52.496;13.456;2023-03-01T11:14:18;5.78;;;4.18;;
25758;SDS011;13604;52.496;13.456;2023-03-01T11:16:47;8.93;;;4.65;;
25758;SDS011;13604;52.496;13.456;2023-03-01T11:19:22;7.45;;;4.15;;
25758;SDS011;13604;52.496;13.456;2023-03-01T11:21:58;8.07;;;4.45;;
25758;SDS011;13604;52.496;13.456;2023-03-01T11:24:32;7.05;;;4.10;;
25758;SDS011;13604;52.496;13.456;2023-03-01T11:27:18;8.13;;;3.95;;
25758;SDS011;13604;52.496;13.456;2023-03-01T11:29:52;5.20;;;3.30;;
25758;SDS011;13604;52.496;13.456;2023-03-01T11:32:23;6.32;;;3.17;;
25758;SDS011;13604;52.496;13.456;2023-03-01T11:34:53;4.40;;;3.08;;
25758;SDS011;13604;52.496;13.456;2023-03-01T11:37:32;4.05;;;2.90;;
25758;SDS011;13604;52.496;13.456;2023-03-01T11:40:05;6.22;;;3.00;;
25758;SDS011;13604;52.496;13.456;2023-03-01T11:42:40;6.85;;;3.60;;
25758;SDS011;13604;52.496;13.456;2023-03-01T11:47:47;3.95;;;2.95;;
25758;SDS011;13604;52.496;13.456;2023-03-01T11:53:13;4.63;;;3.47;;
25758;SDS011;13604;52.496;13.456;2023-03-01T11:55:55;7.35;;;3.20;;
25758;SDS011;13604;52.496;13.456;2023-03-01T12:03:47;6.25;;;3.10;;
25758;SDS011;13604;52.496;13.456;2023-03-01T12:06:47;4.22;;;2.95;;
25758;SDS011;13604;52.496;13.456;2023-03-01T12:12:31;7.32;;;3.50;;
25758;SDS011;13604;52.496;13.456;2023-03-01T12:15:25;4.63;;;2.78;;
25758;SDS011;13604;52.496;13.456;2023-03-01T12:35:50;5.28;;;2.58;;
25758;SDS011;13604;52.496;13.456;2023-03-01T12:41:46;6.97;;;2.60;;
25758;SDS011;13604;52.496;13.456;2023-03-01T12:47:40;3.28;;;2.38;;
25758;SDS011;13604;52.496;13.456;2023-03-01T12:50:26;5.15;;;2.53;;
25758;SDS011;13604;52.496;13.456;2023-03-01T12:53:01;4.35;;;2.85;;
25758;SDS011;13604;52.496;13.456;2023-03-01T12:55:31;4.93;;;2.67;;
25758;SDS011;13604;52.496;13.456;2023-03-01T13:06:32;4.70;;;2.90;;
25758;SDS011;13604;52.496;13.456;2023-03-01T13:11:33;4.00;;;2.70;;
25758;SDS011;13604;52.496;13.456;2023-03-01T13:14:34;3.65;;;2.45;;
25758;SDS011;13604;52.496;13.456;2023-03-01T13:17:00;5.63;;;2.92;;
25758;SDS011;13604;52.496;13.456;2023-03-01T13:19:26;4.10;;;3.05;;
25758;SDS011;13604;52.496;13.456;2023-03-01T13:21:57;5.07;;;2.85;;
25758;SDS011;13604;52.496;13.456;2023-03-01T13:29:45;3.65;;;2.40;;
25758;SDS011;13604;52.496;13.456;2023-03-01T13:32:25;4.22;;;2.50;;
25758;SDS011;13604;52.496;13.456;2023-03-01T13:34:58;5.13;;;2.20;;
25758;SDS011;13604;52.496;13.456;2023-03-01T13:37:29;4.40;;;1.92;;
25758;SDS011;13604;52.496;13.456;2023-03-01T13:39:59;8.35;;;2.45;;
25758;SDS011;13604;52.496;13.456;2023-03-01T13:42:37;6.72;;;2.70;;
25758;SDS011;13604;52.496;13.456;2023-03-01T13:45:16;4.03;;;2.67;;
25758;SDS011;13604;52.496;13.456;2023-03-01T13:48:08;3.95;;;2.40;;
25758;SDS011;13604;52.496;13.456;2023-03-01T13:50:46;3.28;;;2.35;;
25758;SDS011;13604;52.496;13.456;2023-03-01T13:53:19;3.88;;;2.80;;
25758;SDS011;13604;52.496;13.456;2023-03-01T13:55:48;3.45;;;2.80;;
25758;SDS011;13604;52.496;13.456;2023-03-01T13:58:29;3.80;;;2.38;;
25758;SDS011;13604;52.496;13.456;2023-03-01T14:01:06;5.45;;;2.90;;
25758;SDS011;13604;52.496;13.456;2023-03-01T14:03:45;5.97;;;3.00;;
25758;SDS011;13604;52.496;13.456;2023-03-01T14:06:14;7.72;;;3.33;;
25758;SDS011;13604;52.496;13.456;2023-03-01T14:08:44;4.70;;;2.60;;
25758;SDS011;13604;52.496;13.456;2023-03-01T14:13:51;5.10;;;2.15;;
25758;SDS011;13604;52.496;13.456;2023-03-01T14:19:17;3.92;;;2.80;;
25758;SDS011;13604;52.496;13.456;2023-03-01T14:21:46;3.40;;;2.80;;
25758;SDS011;13604;52.496;13.456;2023-03-01T14:24:16;6.30;;;2.58;;
25758;SDS011;13604;52.496;13.456;2023-03-01T14:26:43;4.53;;;2.92;;
25758;SDS011;13604;52.496;13.456;2023-03-01T14:29:23;4.97;;;2.90;;
25758;SDS011;13604;52.496;13.456;2023-03-01T14:31:49;4.15;;;2.67;;
25758;SDS011;13604;52.496;13.456;2023-03-01T14:34:18;6.57;;;3.05;;
25758;SDS011;13604;52.496;13.456;2023-03-01T14:36:48;4.60;;;2.78;;
25758;SDS011;13604;52.496;13.456;2023-03-01T14:39:18;8.00;;;2.72;;
25758;SDS011;13604;52.496;13.456;2023-03-01T14:41:51;3.95;;;2.60;;
25758;SDS011;13604;52.496;13.456;2023-03-01T14:44:21;5.03;;;2.30;;
25758;SDS011;13604;52.496;13.456;2023-03-01T14:46:51;4.80;;;2.60;;
25758;SDS011;13604;52.496;13.456;2023-03-01T14:49:20;3.88;;;3.00;;
25758;SDS011;13604;52.496;13.456;2023-03-01T14:51:59;4.63;;;2.60;;
25758;SDS011;13604;52.496;13.456;2023-03-01T14:54:30;4.38;;;2.20;;
25758;SDS011;13604;52.496;13.456;2023-03-01T14:57:00;3.90;;;2.50;;
25758;SDS011;13604;52.496;13.456;2023-03-01T14:59:26;11.18;;;2.92;;
25758;SDS011;13604;52.496;13.456;2023-03-01T15:01:51;5.05;;;3.15;;
25758;SDS011;13604;52.496;13.456;2023-03-01T15:04:20;5.13;;;3.15;;
25758;SDS011;13604;52.496;13.456;2023-03-01T15:06:47;6.05;;;2.83;;
25758;SDS011;13604;52.496;13.456;2023-03-01T15:09:16;5.60;;;2.70;;
25758;SDS011;13604;52.496;13.456;2023-03-01T15:11:42;4.30;;;2.80;;
25758;SDS011;13604;52.496;13.456;2023-03-01T15:14:27;4.50;;;3.00;;
25758;SDS011;13604;52.496;13.456;2023-03-01T15:17:20;4.10;;;2.53;;
25758;SDS011;13604;52.496;13.456;2023-03-01T15:19:54;5.07;;;2.60;;
25758;SDS011;13604;52.496;13.456;2023-03-01T15:22:20;4.25;;;2.30;;
25758;SDS011;13604;52.496;13.456;2023-03-01T15:24:47;3.78;;;2.70;;
25758;SDS011;13604;52.496;13.456;2023-03-01T15:27:18;3.97;;;2.25;;
25758;SDS011;13604;52.496;13.456;2023-03-01T15:29:50;5.55;;;3.05;;
25758;SDS011;13604;52.496;13.456;2023-03-01T15:32:33;3.60;;;2.50;;
25758;SDS011;13604;52.496;13.456;2023-03-01T15:38:27;5.80;;;2.90;;
25758;SDS011;13604;52.496;13.456;2023-03-01T15:40:58;3.15;;;2.53;;
25758;SDS011;13604;52.496;13.456;2023-03-01T15:43:38;4.57;;;2.80;;
25758;SDS011;13604;52.496;13.456;2023-03-01T15:46:14;7.53;;;3.23;;
25758;SDS011;13604;52.496;13.456;2023-03-01T15:48:52;6.45;;;3.28;;